Time,TemperatureF,DewpointF,PressureIn,WindDirection,WindDirectionDegrees,WindSpeedMPH,WindSpeedGustMPH,Humidity,HourlyPrecipIn,Conditions,Clouds,dailyrainin,SoftwareType,DateUTC
2013-06-22 00:07:00,71.1,67.0,30.24,East,96,1.0,1.0,87,0.00,,,0.00,weatherlink.com 1.10,2013-06-22 04:07:00,
2013-06-22 00:22:00,71.5,67.0,30.25,ENE,75,0.0,1.0,85,0.00,,,0.00,weatherlink.com 1.10,2013-06-22 04:22:00,
2013-06-22 00:37:00,71.2,67.0,30.24,ENE,75,0.0,0.0,86,0.00,,,0.00,weatherlink.com 1.10,2013-06-22 04:37:00,
2013-06-22 00:52:00,70.4,66.0,30.24,East,89,2.0,4.0,86,0.00,,,0.00,weatherlink.com 1.10,2013-06-22 04:52:00,
2013-06-22 01:08:00,69.3,66.0,30.23,ENE,78,5.0,5.0,90,0.00,,,0.00,weatherlink.com 1.10,2013-06-22 05:08:00,
2013-06-22 01:23:00,68.6,66.0,30.23,East,88,4.0,4.0,91,0.00,,,0.00,weatherlink.com 1.10,2013-06-22 05:23:00,
2013-06-22 01:38:00,68.7,66.0,30.22,ESE,113,4.0,6.0,90,0.00,,,0.00,weatherlink.com 1.10,2013-06-22 05:38:00,
2013-06-22 01:53:00,68.2,65.0,30.22,East,87,2.0,3.0,90,0.00,,,0.00,weatherlink.com 1.10,2013-06-22 05:53:00,
2013-06-22 02:08:00,68.0,65.0,30.22,East,80,1.0,3.0,91,0.00,,,0.00,weatherlink.com 1.10,2013-06-22 06:08:00,
2013-06-22 02:23:00,68.3,65.0,30.22,East,94,1.0,3.0,89,0.00,,,0.00,weatherlink.com 1.10,2013-06-22 06:23:00,
2013-06-22 02:38:00,68.2,65.0,30.22,NE,46,2.0,3.0,89,0.00,,,0.00,weatherlink.com 1.10,2013-06-22 06:38:00,
2013-06-22 02:53:00,67.6,65.0,30.22,ENE,61,2.0,3.0,90,0.00,,,0.00,weatherlink.com 1.10,2013-06-22 06:53:00,
2013-06-22 03:08:00,68.1,65.0,30.21,East,84,4.0,4.0,88,0.00,,,0.00,weatherlink.com 1.10,2013-06-22 07:08:00,
2013-06-22 03:23:00,67.1,65.0,30.21,East,82,3.0,7.0,91,0.00,,,0.00,weatherlink.com 1.10,2013-06-22 07:23:00,
2013-06-22 03:38:00,66.7,64.0,30.21,East,101,8.0,8.0,92,0.00,,,0.00,weatherlink.com 1.10,2013-06-22 07:38:00,
2013-06-22 03:53:00,66.2,64.0,30.21,ESE,112,9.0,10.0,92,0.00,,,0.00,weatherlink.com 1.10,2013-06-22 07:53:00,
2013-06-22 04:08:00,65.6,64.0,30.19,ESE,111,9.0,11.0,94,0.00,,,0.00,weatherlink.com 1.10,2013-06-22 08:08:00,
2013-06-22 04:23:00,65.6,64.0,30.19,ESE,122,10.0,12.0,94,0.00,,,0.00,weatherlink.com 1.10,2013-06-22 08:23:00,
2013-06-22 04:38:00,65.8,64.0,30.20,North,9,2.0,9.0,93,0.00,,,0.00,weatherlink.com 1.10,2013-06-22 08:38:00,
2013-06-22 04:53:00,65.4,64.0,30.20,NNW,344,1.0,3.0,94,0.00,,,0.00,weatherlink.com 1.10,2013-06-22 08:53:00,
2013-06-22 05:08:00,65.7,64.0,30.20,NE,51,3.0,4.0,93,0.00,,,0.00,weatherlink.com 1.10,2013-06-22 09:08:00,
2013-06-22 05:23:00,65.9,64.0,30.20,NE,44,2.0,5.0,92,0.00,,,0.00,weatherlink.com 1.10,2013-06-22 09:23:00,
2013-06-22 05:38:00,65.8,64.0,30.21,North,352,3.0,6.0,93,0.00,,,0.00,weatherlink.com 1.10,2013-06-22 09:38:00,
2013-06-22 05:53:00,64.8,63.0,30.21,NNE,15,2.0,4.0,95,0.00,,,0.00,weatherlink.com 1.10,2013-06-22 09:53:00,
2013-06-22 06:08:00,64.5,63.0,30.22,NNW,345,2.0,4.0,95,0.00,,,0.00,weatherlink.com 1.10,2013-06-22 10:08:00,
2013-06-22 06:23:00,65.1,63.0,30.22,NW,314,3.0,3.0,94,0.00,,,0.00,weatherlink.com 1.10,2013-06-22 10:23:00,
2013-06-22 06:38:00,65.4,64.0,30.23,NE,41,1.0,2.0,95,0.00,,,0.00,weatherlink.com 1.10,2013-06-22 10:38:00,
2013-06-22 06:53:00,65.3,64.0,30.23,NW,305,3.0,5.0,94,0.00,,,0.00,weatherlink.com 1.10,2013-06-22 10:53:00,
2013-06-22 07:08:00,66.3,64.0,30.24,NNW,340,2.0,3.0,93,0.00,,,0.00,weatherlink.com 1.10,2013-06-22 11:08:00,
2013-06-22 07:23:00,66.9,64.0,30.24,North,11,0.0,2.0,91,0.00,,,0.00,weatherlink.com 1.10,2013-06-22 11:23:00,
2013-06-22 07:38:00,68.5,65.0,30.25,NNW,338,0.0,1.0,88,0.00,,,0.00,weatherlink.com 1.10,2013-06-22 11:38:00,
2013-06-22 07:53:00,69.6,66.0,30.25,SE,146,1.0,4.0,88,0.00,,,0.00,weatherlink.com 1.10,2013-06-22 11:53:00,
2013-06-22 08:08:00,70.2,66.0,30.25,ESE,119,5.0,7.0,85,0.00,,,0.00,weatherlink.com 1.10,2013-06-22 12:08:00,
2013-06-22 08:23:00,70.4,66.0,30.26,SE,139,3.0,8.0,85,0.00,,,0.00,weatherlink.com 1.10,2013-06-22 12:23:00,
2013-06-22 08:38:00,72.2,66.0,30.26,ESE,115,0.0,6.0,82,0.00,,,0.00,weatherlink.com 1.10,2013-06-22 12:38:00,
2013-06-22 08:53:00,75.6,67.0,30.27,ENE,76,0.0,1.0,74,0.00,,,0.00,weatherlink.com 1.10,2013-06-22 12:53:00,
2013-06-22 09:08:00,76.7,67.0,30.28,West,278,2.0,2.0,71,0.00,,,0.00,weatherlink.com 1.10,2013-06-22 13:08:00,
2013-06-22 09:23:00,75.3,67.0,30.28,NNW,338,0.0,2.0,74,0.00,,,0.00,weatherlink.com 1.10,2013-06-22 13:23:00,
2013-06-22 09:38:00,76.8,66.0,30.28,East,85,0.0,3.0,70,0.00,,,0.00,weatherlink.com 1.10,2013-06-22 13:38:00,
2013-06-22 09:53:00,76.1,67.0,30.28,NNW,327,1.0,4.0,73,0.00,,,0.00,weatherlink.com 1.10,2013-06-22 13:53:00,
2013-06-22 10:09:00,77.5,67.0,30.28,NW,309,2.0,3.0,69,0.00,,,0.00,weatherlink.com 1.10,2013-06-22 14:09:00,
2013-06-22 10:24:00,78.5,67.0,30.28,NNE,13,1.0,2.0,68,0.00,,,0.00,weatherlink.com 1.10,2013-06-22 14:24:00,
2013-06-22 10:39:00,81.7,69.0,30.28,NE,50,0.0,2.0,65,0.00,,,0.00,weatherlink.com 1.10,2013-06-22 14:39:00,
2013-06-22 10:54:00,80.3,67.0,30.28,ENE,63,0.0,4.0,63,0.00,,,0.00,weatherlink.com 1.10,2013-06-22 14:54:00,
2013-06-22 11:09:00,79.0,66.0,30.28,WSW,256,0.0,5.0,64,0.00,,,0.00,weatherlink.com 1.10,2013-06-22 15:09:00,
2013-06-22 11:24:00,79.1,67.0,30.28,West,273,3.0,7.0,66,0.00,,,0.00,weatherlink.com 1.10,2013-06-22 15:24:00,
2013-06-22 11:39:00,81.6,66.0,30.28,WNW,302,5.0,5.0,60,0.00,,,0.00,weatherlink.com 1.10,2013-06-22 15:39:00,
2013-06-22 11:54:00,80.6,66.0,30.28,NE,37,1.0,7.0,62,0.00,,,0.00,weatherlink.com 1.10,2013-06-22 15:54:00,
2013-06-22 12:09:00,82.0,66.0,30.27,NNE,27,1.0,4.0,59,0.00,,,0.00,weatherlink.com 1.10,2013-06-22 16:09:00,
2013-06-22 12:24:00,81.1,65.0,30.27,WNW,295,2.0,6.0,59,0.00,,,0.00,weatherlink.com 1.10,2013-06-22 16:24:00,
2013-06-22 12:39:00,84.1,66.0,30.27,East,84,1.0,6.0,55,0.00,,,0.00,weatherlink.com 1.10,2013-06-22 16:39:00,
2013-06-22 12:54:00,86.6,67.0,30.26,WNW,303,1.0,5.0,53,0.00,,,0.00,weatherlink.com 1.10,2013-06-22 16:54:00,
2013-06-22 13:09:00,88.0,68.0,30.26,ENE,60,2.0,3.0,51,0.00,,,0.00,weatherlink.com 1.10,2013-06-22 17:09:00,
2013-06-22 13:24:00,86.1,67.0,30.25,ESE,117,5.0,5.0,54,0.00,,,0.00,weatherlink.com 1.10,2013-06-22 17:24:00,
2013-06-22 13:39:00,85.5,66.0,30.25,ESE,114,7.0,7.0,52,0.00,,,0.00,weatherlink.com 1.10,2013-06-22 17:39:00,
2013-06-22 13:54:00,84.4,65.0,30.24,SSE,154,2.0,6.0,53,0.00,,,0.00,weatherlink.com 1.10,2013-06-22 17:54:00,
2013-06-22 14:09:00,86.2,68.0,30.24,ESE,123,0.0,5.0,54,0.00,,,0.00,weatherlink.com 1.10,2013-06-22 18:09:00,
2013-06-22 14:24:00,85.6,65.0,30.23,SE,139,2.0,7.0,50,0.00,,,0.00,weatherlink.com 1.10,2013-06-22 18:24:00,
2013-06-22 14:39:00,85.6,65.0,30.22,SSW,212,1.0,9.0,51,0.00,,,0.00,weatherlink.com 1.10,2013-06-22 18:39:00,
2013-06-22 14:54:00,84.0,66.0,30.22,East,92,2.0,13.0,54,0.00,,,0.00,weatherlink.com 1.10,2013-06-22 18:54:00,
2013-06-22 15:09:00,84.7,66.0,30.21,East,91,6.0,8.0,53,0.00,,,0.00,weatherlink.com 1.10,2013-06-22 19:09:00,
2013-06-22 15:24:00,85.3,66.0,30.20,East,85,4.0,8.0,53,0.00,,,0.00,weatherlink.com 1.10,2013-06-22 19:24:00,
2013-06-22 15:39:00,84.9,62.0,30.20,East,101,3.0,7.0,47,0.00,,,0.00,weatherlink.com 1.10,2013-06-22 19:39:00,
2013-06-22 15:54:00,84.8,65.0,30.19,ESE,103,7.0,12.0,51,0.00,,,0.00,weatherlink.com 1.10,2013-06-22 19:54:00,
2013-06-22 16:09:00,84.4,65.0,30.18,SE,124,7.0,11.0,53,0.00,,,0.00,weatherlink.com 1.10,2013-06-22 20:09:00,
2013-06-22 16:24:00,84.6,65.0,30.18,ESE,117,4.0,9.0,52,0.00,,,0.00,weatherlink.com 1.10,2013-06-22 20:24:00,
2013-06-22 16:39:00,85.5,65.0,30.17,East,82,6.0,7.0,51,0.00,,,0.00,weatherlink.com 1.10,2013-06-22 20:39:00,
2013-06-22 16:54:00,83.2,65.0,30.17,East,96,1.0,11.0,54,0.00,,,0.00,weatherlink.com 1.10,2013-06-22 20:54:00,
2013-06-22 17:09:00,84.8,66.0,30.16,East,94,7.0,10.0,53,0.00,,,0.00,weatherlink.com 1.10,2013-06-22 21:09:00,
2013-06-22 17:24:00,84.6,65.0,30.16,SSE,155,0.0,7.0,52,0.00,,,0.00,weatherlink.com 1.10,2013-06-22 21:24:00,
2013-06-22 17:39:00,85.0,65.0,30.15,East,91,3.0,7.0,52,0.00,,,0.00,weatherlink.com 1.10,2013-06-22 21:39:00,
2013-06-22 17:54:00,85.0,65.0,30.14,East,94,2.0,5.0,51,0.00,,,0.00,weatherlink.com 1.10,2013-06-22 21:54:00,
2013-06-22 18:09:00,84.2,65.0,30.14,ESE,107,2.0,7.0,53,0.00,,,0.00,weatherlink.com 1.10,2013-06-22 22:09:00,
2013-06-22 18:24:00,84.1,65.0,30.14,SSE,153,2.0,6.0,53,0.00,,,0.00,weatherlink.com 1.10,2013-06-22 22:24:00,
2013-06-22 18:39:00,84.0,66.0,30.13,SE,131,3.0,6.0,54,0.00,,,0.00,weatherlink.com 1.10,2013-06-22 22:39:00,
2013-06-22 18:54:00,84.0,65.0,30.14,ENE,66,1.0,6.0,53,0.00,,,0.00,weatherlink.com 1.10,2013-06-22 22:54:00,
2013-06-22 19:09:00,83.6,65.0,30.13,ESE,119,3.0,5.0,53,0.00,,,0.00,weatherlink.com 1.10,2013-06-22 23:09:00,
2013-06-22 19:24:00,83.1,64.0,30.13,East,96,2.0,7.0,53,0.00,,,0.00,weatherlink.com 1.10,2013-06-22 23:24:00,
2013-06-22 19:39:00,83.0,65.0,30.13,SE,129,4.0,5.0,54,0.00,,,0.00,weatherlink.com 1.10,2013-06-22 23:39:00,
2013-06-22 19:54:00,82.5,64.0,30.12,ESE,113,4.0,6.0,53,0.00,,,0.00,weatherlink.com 1.10,2013-06-22 23:54:00,
2013-06-22 20:09:00,82.0,64.0,30.12,SE,125,3.0,5.0,54,0.00,,,0.00,weatherlink.com 1.10,2013-06-23 00:09:00,
2013-06-22 20:24:00,81.4,63.0,30.13,East,88,4.0,6.0,54,0.00,,,0.00,weatherlink.com 1.10,2013-06-23 00:24:00,
2013-06-22 20:39:00,80.4,63.0,30.13,East,95,2.0,4.0,56,0.00,,,0.00,weatherlink.com 1.10,2013-06-23 00:39:00,
2013-06-22 20:54:00,80.0,63.0,30.14,East,101,0.0,3.0,57,0.00,,,0.00,weatherlink.com 1.10,2013-06-23 00:54:00,
2013-06-22 21:09:00,79.1,64.0,30.15,North,354,0.0,1.0,61,0.00,,,0.00,weatherlink.com 1.10,2013-06-23 01:09:00,
2013-06-22 21:24:00,78.8,64.0,30.15,North,359,0.0,1.0,60,0.00,,,0.00,weatherlink.com 1.10,2013-06-23 01:24:00,
2013-06-22 21:39:00,78.8,65.0,30.16,North,356,0.0,2.0,62,0.00,,,0.00,weatherlink.com 1.10,2013-06-23 01:39:00,
2013-06-22 21:54:00,78.1,65.0,30.16,North,356,1.0,2.0,64,0.00,,,0.00,weatherlink.com 1.10,2013-06-23 01:54:00,
2013-06-22 22:09:00,78.3,64.0,30.17,North,1,1.0,2.0,62,0.00,,,0.00,weatherlink.com 1.10,2013-06-23 02:09:00,
2013-06-22 22:24:00,78.5,64.0,30.18,North,1,0.0,1.0,61,0.00,,,0.00,weatherlink.com 1.10,2013-06-23 02:24:00,
2013-06-22 22:39:00,78.0,63.0,30.18,North,359,1.0,1.0,61,0.00,,,0.00,weatherlink.com 1.10,2013-06-23 02:39:00,
2013-06-22 22:54:00,78.8,63.0,30.18,North,10,0.0,1.0,59,0.00,,,0.00,weatherlink.com 1.10,2013-06-23 02:54:00,
2013-06-22 23:09:00,79.4,62.0,30.18,East,85,0.0,1.0,56,0.00,,,0.00,weatherlink.com 1.10,2013-06-23 03:09:00,
2013-06-22 23:24:00,79.1,62.0,30.18,East,82,0.0,1.0,56,0.00,,,0.00,weatherlink.com 1.10,2013-06-23 03:24:00,
2013-06-22 23:40:00,79.2,62.0,30.18,East,86,0.0,1.0,55,0.00,,,0.00,weatherlink.com 1.10,2013-06-23 03:40:00,
2013-06-22 23:55:00,76.0,66.0,30.18,NNW,334,1.0,2.0,70,0.00,,,0.00,weatherlink.com 1.10,2013-06-23 03:55:00,